createdAt,value
2018-02-05T00:02:01.252Z,83.33
2018-02-05T00:04:29.634Z,83.76
2018-02-05T00:06:58.015Z,84.13
2018-02-05T00:09:27.343Z,83.20
2018-02-05T00:11:55.734Z,83.09
2018-02-05T00:14:24.085Z,83.30
2018-02-05T00:16:52.452Z,83.25
2018-02-05T00:19:20.867Z,83.57
2018-02-05T00:21:49.259Z,83.55
2018-02-05T00:24:17.896Z,83.33
2018-02-05T00:26:46.294Z,83.50
2018-02-05T00:29:14.708Z,83.59
2018-02-05T00:31:43.101Z,84.04
2018-02-05T00:34:12.350Z,84.75
2018-02-05T00:36:44.155Z,84.86
2018-02-05T00:39:12.506Z,84.85
2018-02-05T00:41:42.749Z,85.08
2018-02-05T00:44:12.936Z,84.87
2018-02-05T00:46:41.312Z,84.85
2018-02-05T00:49:09.686Z,85.11
2018-02-05T00:51:38.072Z,85.13
2018-02-05T00:54:06.454Z,85.02
2018-02-05T00:56:36.671Z,84.89
2018-02-05T00:59:05.070Z,84.98
2018-02-05T01:01:33.500Z,85.12
2018-02-05T01:04:02.732Z,85.52
2018-02-05T01:06:31.163Z,85.94
2018-02-05T01:08:59.496Z,85.79
2018-02-05T01:11:27.918Z,85.61
2018-02-05T01:13:58.118Z,85.64
2018-02-05T01:16:26.463Z,84.94
2018-02-05T01:18:54.760Z,85.00
2018-02-05T01:21:23.252Z,85.18
2018-02-05T01:23:51.696Z,85.27
2018-02-05T01:26:19.989Z,84.74
2018-02-05T01:28:48.408Z,84.75
2018-02-05T01:31:16.777Z,84.75
2018-02-05T01:33:45.313Z,84.49
2018-02-05T01:36:14.808Z,84.45
2018-02-05T01:38:45.013Z,84.94
2018-02-05T01:41:14.298Z,84.53
2018-02-05T01:43:46.672Z,84.44
2018-02-05T01:46:15.079Z,84.05
2018-02-05T01:48:44.329Z,84.36
2018-02-05T01:51:12.698Z,84.63
2018-02-05T01:53:41.110Z,84.28
2018-02-05T01:56:12.536Z,84.67
2018-02-05T01:58:44.334Z,84.48
2018-02-05T02:01:12.676Z,84.55
2018-02-05T02:03:41.097Z,84.51
2018-02-05T02:06:11.591Z,84.74
2018-02-05T02:08:43.341Z,85.23
2018-02-05T02:11:11.746Z,84.94
2018-02-05T02:13:40.112Z,85.03
2018-02-05T02:16:08.506Z,84.48
2018-02-05T02:18:42.705Z,84.67
2018-02-05T02:21:14.798Z,84.40
2018-02-05T02:23:43.209Z,84.78
2018-02-05T02:26:12.458Z,85.14
2018-02-05T02:28:45.150Z,85.56
2018-02-05T02:31:13.523Z,85.11
2018-02-05T02:33:47.747Z,85.79
2018-02-05T02:36:19.205Z,85.38
2018-02-05T02:38:53.081Z,85.85
2018-02-05T02:41:21.487Z,85.50
2018-02-05T02:43:55.714Z,85.81
2018-02-05T02:46:28.696Z,85.94
2018-02-05T02:48:57.123Z,85.92
2018-02-05T02:51:26.358Z,85.67
2018-02-05T02:53:54.756Z,85.69
2018-02-05T02:56:26.795Z,85.91
2018-02-05T02:58:55.212Z,85.63
2018-02-05T03:01:23.582Z,85.80
2018-02-05T03:03:52.002Z,86.25
2018-02-05T03:06:21.276Z,86.00
2018-02-05T03:08:53.741Z,86.16
2018-02-05T03:11:24.205Z,86.31
2018-02-05T03:13:53.505Z,86.31
2018-02-05T03:16:22.772Z,86.90
2018-02-05T03:18:51.138Z,87.09
2018-02-05T03:21:19.597Z,87.07
2018-02-05T03:23:47.908Z,87.37
2018-02-05T03:26:21.193Z,87.27
2018-02-05T03:29:00.290Z,87.06
2018-02-05T03:31:28.723Z,87.26
2018-02-05T03:33:57.098Z,87.12
2018-02-05T03:36:25.530Z,86.65
2018-02-05T03:38:54.786Z,87.04
2018-02-05T03:41:23.187Z,87.13
2018-02-05T03:43:53.697Z,87.01
2018-02-05T03:46:25.748Z,86.90
2018-02-05T03:48:54.137Z,86.84
2018-02-05T03:51:22.523Z,86.81
2018-02-05T03:53:50.885Z,87.08
2018-02-05T03:56:21.199Z,86.85
2018-02-05T03:58:51.623Z,86.59
2018-02-05T04:01:23.724Z,86.63
2018-02-05T04:03:52.082Z,86.53
2018-02-05T04:06:20.483Z,86.80
2018-02-05T04:08:48.884Z,87.09
2018-02-05T04:11:19.384Z,86.61
2018-02-05T04:13:53.617Z,86.30
2018-02-05T04:16:22.085Z,86.33
2018-02-05T04:18:54.058Z,86.56
2018-02-05T04:21:22.470Z,86.37
2018-02-05T04:23:51.746Z,86.34
2018-02-05T04:26:20.113Z,86.55
2018-02-05T04:28:51.857Z,86.84
2018-02-05T04:31:23.669Z,86.82
2018-02-05T04:33:52.958Z,86.68
2018-02-05T04:36:21.290Z,86.91
2018-02-05T04:38:54.931Z,86.91
2018-02-05T04:41:23.319Z,86.89
2018-02-05T04:43:53.824Z,86.66
2018-02-05T04:46:25.916Z,86.35
2018-02-05T04:48:54.259Z,86.03
2018-02-05T04:51:22.721Z,86.11
2018-02-05T04:53:51.048Z,86.87
2018-02-05T04:56:19.429Z,86.78
2018-02-05T04:58:47.809Z,86.26
2018-02-05T05:01:19.246Z,85.69
2018-02-05T05:03:50.989Z,85.77
2018-02-05T05:06:19.390Z,85.65
2018-02-05T05:08:47.763Z,85.48
2018-02-05T05:11:21.360Z,85.29
2018-02-05T05:13:49.761Z,85.18
2018-02-05T05:16:21.476Z,85.17
2018-02-05T05:18:49.880Z,85.26
2018-02-05T05:21:18.263Z,85.12
2018-02-05T05:23:51.565Z,84.80
2018-02-05T05:26:19.933Z,84.52
2018-02-05T05:28:53.140Z,84.89
2018-02-05T05:31:21.611Z,84.79
2018-02-05T05:33:49.973Z,84.50
2018-02-05T05:36:18.393Z,84.66
2018-02-05T05:38:46.752Z,84.67
2018-02-05T05:41:18.204Z,84.89
2018-02-05T05:43:49.990Z,84.80
2018-02-05T05:46:18.383Z,84.74
2018-02-05T05:49:00.778Z,84.65
2018-02-05T05:51:29.246Z,84.71
2018-02-05T05:54:00.693Z,84.73
2018-02-05T05:56:32.452Z,84.50
2018-02-05T05:59:00.806Z,84.47
2018-02-05T06:01:29.228Z,84.50
2018-02-05T06:04:02.813Z,84.71
2018-02-05T06:06:31.219Z,84.92
2018-02-05T06:09:03.573Z,84.65
2018-02-05T06:11:31.935Z,84.68
2018-02-05T06:14:00.322Z,84.25
2018-02-05T06:16:29.617Z,84.07
2018-02-05T06:18:57.989Z,84.59
2018-02-05T06:21:26.379Z,84.43
2018-02-05T06:23:54.752Z,83.79
2018-02-05T06:26:23.130Z,83.75
2018-02-05T06:28:51.519Z,83.54
2018-02-05T06:31:19.913Z,83.68
2018-02-05T06:33:48.278Z,83.54
2018-02-05T06:36:16.674Z,83.47
2018-02-05T06:38:45.054Z,83.24
2018-02-05T06:41:13.414Z,83.32
2018-02-05T06:43:41.792Z,83.22
2018-02-05T06:46:10.193Z,83.35
2018-02-05T06:48:38.548Z,83.29
2018-02-05T06:51:24.814Z,83.41
2018-02-05T06:54:11.696Z,83.87
2018-02-05T06:56:39.995Z,83.63
2018-02-05T06:59:09.298Z,83.55
2018-02-05T07:01:38.560Z,83.69
2018-02-05T07:04:06.943Z,83.41
2018-02-05T07:06:35.617Z,83.36
2018-02-05T07:09:04.025Z,83.46
2018-02-05T07:11:32.362Z,83.34
2018-02-05T07:14:00.754Z,83.44
2018-02-05T07:16:29.243Z,83.36
2018-02-05T07:18:57.513Z,83.11
2018-02-05T07:21:25.918Z,83.20
2018-02-05T07:23:54.260Z,82.58
2018-02-05T07:26:22.658Z,82.53
2018-02-05T07:28:51.048Z,82.52
2018-02-05T07:31:19.422Z,82.56
2018-02-05T07:33:47.813Z,82.71
2018-02-05T07:36:17.100Z,82.55
2018-02-05T07:38:45.474Z,82.49
2018-02-05T07:41:13.860Z,82.67
2018-02-05T07:43:42.231Z,82.38
2018-02-05T07:46:10.624Z,82.03
2018-02-05T07:48:39.013Z,82.10
2018-02-05T07:51:07.366Z,82.28
2018-02-05T07:53:35.768Z,82.36
2018-02-05T07:56:04.168Z,82.37
2018-02-05T07:58:32.530Z,82.07
2018-02-05T08:01:00.897Z,81.95
2018-02-05T08:03:29.181Z,82.02
2018-02-05T08:05:57.697Z,81.46
2018-02-05T08:08:25.980Z,81.70
2018-02-05T08:10:54.440Z,82.15
2018-02-05T08:13:22.814Z,81.89
2018-02-05T08:15:51.194Z,81.55
2018-02-05T08:18:19.555Z,81.48
2018-02-05T08:20:47.942Z,81.52
2018-02-05T08:23:16.312Z,81.80
2018-02-05T08:25:44.683Z,81.71
2018-02-05T08:28:13.090Z,81.62
2018-02-05T08:30:41.461Z,81.65
2018-02-05T08:33:09.865Z,81.95
2018-02-05T08:35:38.214Z,82.33
2018-02-05T08:38:06.638Z,81.98
2018-02-05T08:40:35.942Z,81.26
2018-02-05T08:43:05.180Z,81.35
2018-02-05T08:45:33.668Z,81.45
2018-02-05T08:48:02.002Z,81.47
2018-02-05T08:50:31.282Z,81.13
2018-02-05T08:52:59.653Z,81.08
2018-02-05T08:55:28.055Z,80.80
2018-02-05T08:57:56.437Z,80.64
2018-02-05T09:00:24.780Z,81.12
2018-02-05T09:02:53.170Z,81.13
2018-02-05T09:05:21.558Z,80.92
2018-02-05T09:07:49.910Z,80.96
2018-02-05T09:10:18.329Z,81.05
2018-02-05T09:12:46.701Z,80.48
2018-02-05T09:15:15.066Z,80.28
2018-02-05T09:17:43.398Z,80.40
2018-02-05T09:20:12.483Z,80.57
2018-02-05T09:22:41.742Z,80.46
2018-02-05T09:25:10.103Z,80.69
2018-02-05T09:27:38.537Z,79.91
2018-02-05T09:30:06.948Z,80.11
2018-02-05T09:32:35.275Z,79.94
2018-02-05T09:35:03.709Z,81.00
2018-02-05T09:37:32.043Z,80.02
2018-02-05T09:40:00.386Z,79.72
2018-02-05T09:42:28.780Z,80.51
2018-02-05T09:44:57.206Z,80.43
2018-02-05T09:47:26.442Z,80.26
2018-02-05T09:49:54.838Z,80.19
2018-02-05T09:52:23.219Z,80.08
2018-02-05T09:54:51.621Z,80.32
2018-02-05T09:57:47.208Z,80.36
2018-02-05T10:00:15.709Z,79.74
2018-02-05T10:02:44.061Z,79.29
2018-02-05T10:05:12.460Z,79.34
2018-02-05T10:07:40.828Z,79.48
2018-02-05T10:10:09.218Z,79.27
2018-02-05T10:12:37.668Z,79.07
2018-02-05T10:15:05.966Z,78.79
2018-02-05T10:17:34.365Z,78.79
2018-02-05T10:20:02.727Z,78.76
2018-02-05T10:22:31.130Z,78.83
2018-02-05T10:24:59.487Z,77.73
2018-02-05T10:27:27.869Z,78.24
2018-02-05T10:29:56.301Z,78.41
2018-02-05T10:32:25.563Z,78.72
2018-02-05T10:34:53.944Z,78.60
2018-02-05T10:37:22.308Z,78.29
2018-02-05T10:39:50.755Z,78.51
2018-02-05T10:42:20.002Z,78.22
2018-02-05T10:44:48.373Z,77.88
2018-02-05T10:47:16.781Z,77.27
2018-02-05T10:49:45.125Z,77.61
2018-02-05T10:52:13.953Z,77.38
2018-02-05T10:54:42.280Z,76.49
2018-02-05T10:57:10.661Z,76.50
2018-02-05T10:59:39.015Z,76.69
2018-02-05T11:02:08.253Z,76.92
2018-02-05T11:04:36.671Z,76.55
2018-02-05T11:07:09.062Z,76.32
2018-02-05T11:09:37.433Z,76.15
2018-02-05T11:12:05.897Z,76.08
2018-02-05T11:14:34.299Z,76.64
2018-02-05T11:17:02.585Z,76.48
2018-02-05T11:19:31.854Z,76.47
2018-02-05T11:22:00.239Z,76.16
2018-02-05T11:24:28.617Z,76.07
2018-02-05T11:26:56.977Z,75.99
2018-02-05T11:29:25.480Z,76.34
2018-02-05T11:31:53.772Z,75.97
2018-02-05T11:34:22.541Z,75.36
2018-02-05T11:36:50.831Z,75.80
2018-02-05T11:39:19.315Z,75.25
2018-02-05T11:41:47.640Z,75.14
2018-02-05T11:44:16.872Z,75.24
2018-02-05T11:46:45.292Z,75.53
2018-02-05T11:49:13.631Z,74.86
2018-02-05T11:51:42.973Z,75.17
2018-02-05T11:54:11.340Z,74.17
2018-02-05T11:56:39.793Z,74.50
2018-02-05T11:59:08.995Z,74.64
2018-02-05T12:01:37.402Z,74.46
2018-02-05T12:04:05.780Z,74.82
2018-02-05T12:06:34.172Z,74.44
2018-02-05T12:09:03.435Z,74.40
2018-02-05T12:11:31.830Z,74.00
2018-02-05T12:14:00.207Z,73.61
2018-02-05T12:16:28.874Z,72.94
2018-02-05T12:18:57.285Z,73.29
2018-02-05T12:21:25.639Z,73.17
2018-02-05T12:23:54.024Z,73.15
2018-02-05T12:26:22.397Z,74.17
2018-02-05T12:28:50.816Z,73.48
2018-02-05T12:31:19.145Z,73.24
2018-02-05T12:33:47.545Z,72.41
2018-02-05T12:36:15.958Z,72.66
2018-02-05T12:38:44.350Z,72.88
2018-02-05T12:41:12.703Z,72.35
2018-02-05T12:43:41.063Z,72.37
2018-02-05T12:46:09.442Z,73.05
2018-02-05T12:48:44.603Z,72.38
2018-02-05T12:51:12.950Z,73.07
2018-02-05T12:53:41.348Z,73.07
2018-02-05T12:56:09.739Z,72.49
2018-02-05T12:58:38.146Z,71.69
2018-02-05T13:04:19.184Z,71.97
2018-02-05T13:06:50.910Z,71.91
2018-02-05T13:09:20.195Z,71.35
2018-02-05T13:11:48.544Z,71.50
2018-02-05T13:14:20.322Z,70.87
2018-02-05T13:16:48.654Z,71.34
2018-02-05T13:19:17.087Z,70.63
2018-02-05T13:21:45.544Z,70.84
2018-02-05T13:24:16.041Z,70.08
2018-02-05T13:26:50.806Z,71.29
2018-02-05T13:29:19.193Z,70.79
2018-02-05T13:31:47.823Z,70.01
2018-02-05T13:34:18.997Z,70.18
2018-02-05T13:36:50.449Z,70.49
2018-02-05T13:39:18.875Z,69.84
2018-02-05T13:41:47.223Z,70.10
2018-02-05T13:44:18.672Z,69.33
2018-02-05T13:46:48.899Z,69.93
2018-02-05T13:49:17.324Z,69.91
2018-02-05T13:51:45.659Z,69.46
2018-02-05T13:54:14.040Z,68.64
2018-02-05T13:56:42.411Z,69.59
2018-02-05T13:59:12.622Z,70.17
2018-02-05T14:01:41.035Z,69.97
2018-02-05T14:04:09.396Z,69.12
2018-02-05T14:06:37.802Z,69.88
2018-02-05T14:09:06.165Z,69.75
2018-02-05T14:11:34.523Z,68.99
2018-02-05T14:14:02.950Z,68.71
2018-02-05T14:16:34.344Z,68.22
2018-02-05T14:19:04.940Z,67.96
2018-02-05T14:21:37.882Z,68.01
2018-02-05T14:24:06.294Z,68.17
2018-02-05T14:26:34.635Z,68.65
2018-02-05T14:29:03.035Z,67.73
2018-02-05T14:31:31.435Z,67.83
2018-02-05T14:33:59.785Z,68.17
2018-02-05T14:36:28.183Z,67.35
2018-02-05T14:38:56.540Z,68.59
2018-02-05T14:41:28.939Z,68.68
2018-02-05T14:43:57.362Z,68.74
2018-02-05T14:46:26.610Z,68.62
2018-02-05T14:48:54.985Z,68.82
2018-02-05T14:51:23.402Z,69.48
2018-02-05T14:53:51.879Z,68.32
2018-02-05T14:56:21.382Z,68.99
2018-02-05T14:58:53.062Z,68.86
2018-02-05T15:01:24.279Z,68.48
2018-02-05T15:03:56.944Z,68.21
2018-02-05T15:06:25.341Z,68.25
2018-02-05T15:08:57.152Z,68.47
2018-02-05T15:11:26.392Z,67.96
2018-02-05T15:13:54.775Z,67.51
2018-02-05T15:16:26.239Z,67.77
2018-02-05T15:19:01.925Z,67.74
2018-02-05T15:21:30.958Z,68.32
2018-02-05T15:24:03.654Z,68.18
2018-02-05T15:26:32.072Z,68.01
2018-02-05T15:29:02.546Z,67.80
2018-02-05T15:31:39.548Z,68.36
2018-02-05T15:34:07.915Z,68.00
2018-02-05T15:36:36.288Z,67.77
2018-02-05T15:39:08.377Z,67.93
2018-02-05T15:41:36.758Z,67.68
2018-02-05T15:44:05.122Z,68.06
2018-02-05T15:46:33.489Z,68.02
2018-02-05T15:49:01.856Z,68.14
2018-02-05T15:51:30.304Z,68.02
2018-02-05T15:53:59.573Z,67.47
2018-02-05T15:56:27.952Z,67.97
2018-02-05T15:59:00.335Z,67.33
2018-02-05T16:01:28.737Z,67.88
2018-02-05T16:03:57.991Z,68.17
2018-02-05T16:06:26.389Z,68.06
2018-02-05T16:08:54.775Z,67.66
2018-02-05T16:11:23.175Z,67.73
2018-02-05T16:13:53.458Z,67.92
2018-02-05T16:16:23.903Z,67.58
2018-02-05T16:19:00.280Z,68.31
2018-02-05T16:21:28.629Z,67.93
2018-02-05T16:23:57.264Z,68.01
2018-02-05T16:26:25.698Z,67.53
2018-02-05T16:28:54.143Z,67.58
2018-02-05T16:31:23.406Z,67.59
2018-02-05T16:33:51.787Z,67.47
2018-02-05T16:36:20.169Z,67.97
2018-02-05T16:38:54.462Z,68.75
2018-02-05T16:41:24.914Z,68.73
2018-02-05T16:43:56.390Z,67.80
2018-02-05T16:46:29.338Z,67.06
2018-02-05T16:48:57.764Z,67.73
2018-02-05T16:51:27.008Z,67.96
2018-02-05T16:53:55.415Z,67.67
2018-02-05T16:56:23.887Z,67.59
2018-02-05T16:58:54.607Z,67.42
2018-02-05T17:01:26.378Z,67.54
2018-02-05T17:03:54.825Z,67.91
2018-02-05T17:06:24.069Z,68.27
2018-02-05T17:08:57.447Z,68.08
2018-02-05T17:11:29.154Z,68.13
2018-02-05T17:13:59.683Z,68.58
2018-02-05T17:16:28.033Z,68.71
2018-02-05T17:18:58.279Z,68.80
2018-02-05T17:21:32.452Z,69.04
2018-02-05T17:24:00.948Z,69.38
2018-02-05T17:26:29.249Z,69.85
2018-02-05T17:28:57.618Z,70.02
2018-02-05T17:31:25.979Z,69.94
2018-02-05T17:33:54.466Z,69.84
2018-02-05T17:36:24.118Z,69.81
2018-02-05T17:38:53.726Z,70.26
2018-02-05T17:41:23.235Z,70.49
2018-02-05T17:43:51.605Z,70.69
2018-02-05T17:46:20.013Z,70.96
2018-02-05T17:48:49.389Z,70.93
2018-02-05T17:51:18.085Z,70.61
2018-02-05T17:53:47.564Z,70.71
2018-02-05T17:56:16.041Z,71.68
2018-02-05T17:58:45.589Z,71.50
2018-02-05T18:01:13.971Z,71.70
2018-02-05T18:03:43.375Z,72.03
2018-02-05T18:06:12.869Z,71.88
2018-02-05T18:08:43.464Z,72.15
2018-02-05T18:11:14.126Z,72.22
2018-02-05T18:13:42.616Z,72.11
2018-02-05T18:16:11.247Z,72.42
2018-02-05T18:18:39.800Z,72.86
2018-02-05T18:21:09.096Z,72.73
2018-02-05T18:23:38.578Z,73.38
2018-02-05T18:26:06.987Z,72.87
2018-02-05T18:28:36.310Z,73.07
2018-02-05T18:31:05.521Z,72.83
2018-02-05T18:33:33.982Z,73.32
2018-02-05T18:36:03.289Z,73.34
2018-02-05T18:38:32.614Z,73.70
2018-02-05T18:41:01.863Z,73.47
2018-02-05T18:43:32.364Z,73.53
2018-02-05T18:46:03.953Z,73.70
2018-02-05T18:48:33.481Z,74.11
2018-02-05T18:51:01.839Z,74.24
2018-02-05T18:53:32.340Z,74.09
2018-02-05T18:56:00.769Z,73.94
2018-02-05T18:58:33.068Z,74.28
2018-02-05T19:01:04.867Z,74.31
2018-02-05T19:03:53.744Z,74.12
2018-02-05T19:06:22.333Z,74.28
2018-02-05T19:08:50.605Z,74.57
2018-02-05T19:11:18.965Z,74.38
2018-02-05T19:13:47.637Z,74.51
2018-02-05T19:16:18.687Z,74.70
2018-02-05T19:18:49.008Z,74.67
2018-02-05T19:21:17.367Z,74.72
2018-02-05T19:23:45.756Z,74.75
2018-02-05T19:26:14.122Z,75.15
2018-02-05T19:28:44.321Z,74.93
2018-02-05T19:31:13.375Z,75.10
2018-02-05T19:33:41.744Z,74.85
2018-02-05T19:36:10.395Z,75.04
2018-02-05T19:38:38.809Z,75.15
2018-02-05T19:41:07.213Z,74.77
2018-02-05T19:43:35.581Z,74.92
2018-02-05T19:46:03.946Z,74.85
2018-02-05T19:48:32.766Z,74.87
2018-02-05T19:51:01.055Z,74.96
2018-02-05T19:53:29.383Z,75.53
2018-02-05T19:55:57.801Z,74.95
2018-02-05T19:58:26.138Z,75.27
2018-02-05T20:00:55.479Z,75.33
2018-02-05T20:03:23.845Z,75.01
2018-02-05T20:05:52.247Z,75.03
2018-02-05T20:08:20.599Z,74.79
2018-02-05T20:10:49.048Z,74.69
2018-02-05T20:13:17.364Z,74.60
2018-02-05T20:15:45.728Z,74.93
2018-02-05T20:18:14.126Z,74.98
2018-02-05T20:20:43.429Z,74.87
2018-02-05T20:23:11.807Z,74.77
2018-02-05T20:25:40.201Z,74.58
2018-02-05T20:28:08.541Z,74.82
2018-02-05T20:30:36.963Z,75.05
2018-02-05T20:33:06.212Z,74.87
2018-02-05T20:35:34.612Z,74.75
2018-02-05T20:38:06.391Z,74.97
2018-02-05T20:40:34.766Z,75.03
2018-02-05T20:43:03.172Z,75.42
2018-02-05T20:45:32.365Z,75.19
2018-02-05T20:48:00.830Z,74.95
2018-02-05T20:50:29.214Z,75.51
2018-02-05T20:52:57.592Z,75.29
2018-02-05T20:55:26.004Z,75.35
2018-02-05T20:57:54.361Z,75.78
2018-02-05T21:00:22.720Z,75.71
2018-02-05T21:02:51.106Z,75.63
2018-02-05T21:05:21.408Z,75.43
2018-02-05T21:07:53.125Z,75.84
2018-02-05T21:10:23.253Z,75.49
2018-02-05T21:12:51.722Z,76.19
2018-02-05T21:15:20.097Z,75.65
2018-02-05T21:17:48.451Z,75.74
2018-02-05T21:20:16.846Z,75.66
2018-02-05T21:22:45.328Z,75.42
2018-02-05T21:25:13.633Z,75.47
2018-02-05T21:27:42.949Z,75.33
2018-02-05T21:30:12.014Z,75.47
2018-02-05T21:32:40.296Z,75.35
2018-02-05T21:35:09.017Z,75.47
2018-02-05T21:37:37.347Z,75.68
2018-02-05T21:40:05.840Z,75.57
2018-02-05T21:42:34.107Z,75.60
2018-02-05T21:45:02.457Z,75.56
2018-02-05T21:47:30.866Z,75.66
2018-02-05T21:50:00.167Z,75.79
2018-02-05T21:52:28.931Z,75.63
2018-02-05T21:54:59.386Z,75.51
2018-02-05T21:57:27.731Z,75.39
2018-02-05T21:59:59.684Z,75.26
2018-02-05T22:02:27.979Z,75.52
2018-02-05T22:04:56.324Z,75.54
2018-02-05T22:07:25.356Z,75.54
2018-02-05T22:09:53.654Z,75.39
2018-02-05T22:12:21.948Z,75.33
2018-02-05T22:14:50.229Z,75.92
2018-02-05T22:17:18.516Z,75.54
2018-02-05T22:19:46.786Z,75.21
2018-02-05T22:22:15.039Z,75.05
2018-02-05T22:24:43.340Z,75.54
2018-02-05T22:27:11.607Z,75.10
2018-02-05T22:29:40.414Z,75.38
2018-02-05T22:32:08.707Z,75.63
2018-02-05T22:34:37.768Z,75.46
2018-02-05T22:37:06.036Z,75.49
2018-02-05T22:39:34.323Z,75.64
2018-02-05T22:42:02.642Z,75.49
2018-02-05T22:44:31.702Z,75.52
2018-02-05T22:47:00.012Z,75.52
2018-02-05T22:49:29.080Z,75.81
2018-02-05T22:51:57.377Z,75.58
2018-02-05T22:54:25.665Z,75.82
2018-02-05T22:56:54.695Z,76.00
2018-02-05T22:59:22.996Z,76.13
2018-02-05T23:01:51.289Z,75.97
2018-02-05T23:04:19.599Z,75.67
2018-02-05T23:06:48.634Z,75.64
2018-02-05T23:09:17.226Z,75.37
2018-02-05T23:11:45.520Z,75.95
2018-02-05T23:14:13.816Z,75.89
2018-02-05T23:16:42.118Z,75.98
2018-02-05T23:19:11.151Z,75.30
2018-02-05T23:21:39.438Z,75.65
2018-02-05T23:24:07.707Z,75.80
2018-02-05T23:26:36.008Z,75.71
2018-02-05T23:29:04.287Z,76.02
2018-02-05T23:31:32.554Z,75.57
2018-02-05T23:34:00.854Z,75.43
2018-02-05T23:36:29.114Z,75.55
2018-02-05T23:38:57.420Z,75.53
2018-02-05T23:41:25.688Z,75.50
2018-02-05T23:43:53.954Z,75.66
2018-02-05T23:46:23.020Z,75.73
2018-02-05T23:48:51.313Z,75.81
2018-02-05T23:51:19.617Z,75.71
2018-02-05T23:53:47.894Z,75.73
2018-02-05T23:56:16.179Z,75.74
2018-02-05T23:58:44.474Z,75.74
